createdAt,value
2023-01-04T00:00:01.025Z,0.90
2023-01-04T00:02:28.861Z,0.90
2023-01-04T00:04:55.899Z,0.90
2023-01-04T00:07:22.953Z,0.90
2023-01-04T00:09:49.932Z,1.00
2023-01-04T00:12:16.869Z,1.00
2023-01-04T00:14:43.849Z,0.77
2023-01-04T00:17:10.767Z,0.85
2023-01-04T00:19:37.927Z,0.88
2023-01-04T00:22:05.098Z,0.90
2023-01-04T00:24:32.088Z,0.95
2023-01-04T00:26:59.046Z,0.80
2023-01-04T00:29:26.020Z,0.80
2023-01-04T00:31:53.162Z,1.10
2023-01-04T00:34:20.566Z,1.73
2023-01-04T00:36:47.626Z,1.95
2023-01-04T00:39:16.648Z,2.20
2023-01-04T00:42:00.603Z,2.90
2023-01-04T00:44:28.765Z,2.50
2023-01-04T00:46:56.121Z,3.00
2023-01-04T00:49:23.283Z,2.53
2023-01-04T00:51:50.301Z,3.22
2023-01-04T00:54:17.993Z,2.85
2023-01-04T00:56:45.206Z,3.40
2023-01-04T00:59:14.921Z,3.28
2023-01-04T01:01:43.522Z,2.80
2023-01-04T01:04:13.642Z,3.05
2023-01-04T01:06:41.255Z,2.88
2023-01-04T01:09:09.218Z,3.47
2023-01-04T01:11:38.431Z,2.88
2023-01-04T01:14:06.346Z,3.05
2023-01-04T01:19:20.462Z,3.15
2023-01-04T01:21:47.423Z,3.20
2023-01-04T01:24:19.395Z,2.88
2023-01-04T01:26:46.726Z,2.80
2023-01-04T01:29:13.770Z,2.70
2023-01-04T01:31:41.735Z,3.28
2023-01-04T01:34:09.649Z,2.90
2023-01-04T01:36:36.828Z,3.30
2023-01-04T01:39:04.865Z,3.38
2023-01-04T01:41:34.105Z,3.53
2023-01-04T01:44:02.517Z,4.07
2023-01-04T01:46:34.258Z,3.80
2023-01-04T01:49:15.034Z,2.97
2023-01-04T01:51:42.760Z,3.00
2023-01-04T01:54:18.035Z,2.80
2023-01-04T01:56:47.577Z,2.88
2023-01-04T01:59:15.847Z,3.10
2023-01-04T02:01:43.488Z,3.23
2023-01-04T02:04:11.867Z,3.55
2023-01-04T02:06:43.778Z,3.43
2023-01-04T02:09:10.820Z,2.97
2023-01-04T02:11:37.838Z,3.13
2023-01-04T02:14:25.638Z,2.80
2023-01-04T02:17:16.666Z,3.00
2023-01-04T02:20:11.493Z,3.35
2023-01-04T02:23:02.813Z,3.20
2023-01-04T02:25:51.304Z,3.97
2023-01-04T02:28:24.321Z,3.70
2023-01-04T02:30:57.373Z,3.50
2023-01-04T02:33:42.592Z,4.33
2023-01-04T02:36:09.468Z,3.47
2023-01-04T02:38:54.687Z,4.07
2023-01-04T02:41:45.124Z,3.77
2023-01-04T02:44:50.337Z,4.00
2023-01-04T02:47:48.802Z,4.32
2023-01-04T02:50:33.894Z,4.37
2023-01-04T02:53:12.835Z,6.43
2023-01-04T02:55:45.557Z,5.47
2023-01-04T02:58:41.989Z,4.97
2023-01-04T03:01:54.928Z,5.07
2023-01-04T03:04:49.573Z,4.77
2023-01-04T03:07:24.575Z,4.88
2023-01-04T03:09:57.753Z,5.20
2023-01-04T03:12:33.568Z,4.43
2023-01-04T03:15:06.396Z,4.00
2023-01-04T03:17:45.117Z,3.90
2023-01-04T03:20:16.479Z,4.30
2023-01-04T03:23:13.889Z,4.00
2023-01-04T03:26:40.034Z,3.92
2023-01-04T03:29:44.432Z,4.60
2023-01-04T03:32:34.093Z,4.00
2023-01-04T03:35:19.849Z,4.43
2023-01-04T03:37:49.517Z,4.10
2023-01-04T03:40:39.409Z,4.20
2023-01-04T03:43:42.674Z,4.23
2023-01-04T03:46:38.965Z,3.63
2023-01-04T03:49:39.852Z,3.53
2023-01-04T03:52:09.677Z,3.53
2023-01-04T03:54:39.834Z,4.20
2023-01-04T03:57:09.318Z,3.60
2023-01-04T03:59:44.272Z,3.83
2023-01-04T04:02:14.151Z,3.50
2023-01-04T04:05:00.887Z,2.90
2023-01-04T04:07:46.979Z,3.10
2023-01-04T04:10:13.994Z,3.20
2023-01-04T04:12:40.961Z,3.03
2023-01-04T04:15:08.400Z,3.03
2023-01-04T04:17:35.429Z,3.00
2023-01-04T04:20:02.927Z,2.67
2023-01-04T04:22:30.707Z,2.90
2023-01-04T04:24:57.643Z,2.50
2023-01-04T04:27:24.669Z,2.20
2023-01-04T04:29:51.611Z,2.40
2023-01-04T04:32:18.599Z,2.47
2023-01-04T04:34:45.538Z,2.60
2023-01-04T04:37:12.478Z,2.87
2023-01-04T04:39:39.448Z,3.30
2023-01-04T04:42:06.378Z,2.50
2023-01-04T04:44:35.114Z,2.83
2023-01-04T04:47:02.654Z,2.33
2023-01-04T04:49:30.374Z,3.57
2023-01-04T04:51:57.435Z,3.07
2023-01-04T04:54:24.461Z,2.67
2023-01-04T04:56:51.531Z,2.60
2023-01-04T04:59:18.591Z,2.90
2023-01-04T05:01:45.786Z,2.80
2023-01-04T05:04:16.948Z,2.73
2023-01-04T05:06:44.747Z,3.10
2023-01-04T05:09:12.929Z,3.23
2023-01-04T05:11:58.627Z,3.00
2023-01-04T05:14:26.794Z,3.30
2023-01-04T05:16:54.107Z,2.77
2023-01-04T05:19:21.109Z,2.23
2023-01-04T05:21:48.059Z,2.43
2023-01-04T05:24:15.186Z,2.60
2023-01-04T05:26:42.174Z,2.90
2023-01-04T05:29:29.086Z,2.20
2023-01-04T05:31:56.122Z,2.70
2023-01-04T05:34:23.139Z,2.63
2023-01-04T05:36:50.139Z,2.50
2023-01-04T05:39:17.090Z,2.67
2023-01-04T05:42:22.413Z,2.53
2023-01-04T05:44:49.349Z,2.40
2023-01-04T05:47:16.351Z,2.50
2023-01-04T05:49:44.113Z,2.43
2023-01-04T05:52:11.507Z,2.37
2023-01-04T05:54:38.515Z,2.23
2023-01-04T05:57:05.501Z,2.70
2023-01-04T05:59:37.235Z,1.97
2023-01-04T06:02:13.248Z,2.33
2023-01-04T06:04:40.333Z,2.17
2023-01-04T06:07:07.368Z,2.50
2023-01-04T06:09:34.387Z,2.43
2023-01-04T06:12:01.429Z,1.90
2023-01-04T06:14:28.439Z,2.40
2023-01-04T06:16:55.443Z,2.20
2023-01-04T06:19:22.427Z,2.10
2023-01-04T06:21:49.368Z,2.60
2023-01-04T06:24:16.616Z,2.77
2023-01-04T06:26:43.580Z,2.70
2023-01-04T06:29:10.765Z,2.73
2023-01-04T06:31:37.809Z,2.40
2023-01-04T06:34:04.780Z,2.47
2023-01-04T06:36:31.837Z,2.60
2023-01-04T06:39:00.100Z,2.93
2023-01-04T06:41:27.454Z,2.50
2023-01-04T06:43:54.524Z,2.37
2023-01-04T06:46:21.619Z,2.60
2023-01-04T06:48:48.857Z,2.50
2023-01-04T06:51:15.868Z,3.00
2023-01-04T06:53:42.830Z,2.40
2023-01-04T06:56:09.805Z,2.80
2023-01-04T06:58:37.570Z,3.20
2023-01-04T07:01:05.461Z,3.00
2023-01-04T07:03:33.177Z,2.67
2023-01-04T07:06:00.176Z,2.30
2023-01-04T07:08:27.325Z,2.17
2023-01-04T07:10:54.318Z,2.20
2023-01-04T07:13:22.503Z,2.30
2023-01-04T07:15:49.480Z,2.13
2023-01-04T07:18:16.594Z,2.43
2023-01-04T07:20:44.437Z,2.00
2023-01-04T07:23:11.427Z,2.47
2023-01-04T07:25:38.461Z,2.40
2023-01-04T07:28:05.675Z,2.20
2023-01-04T07:30:32.823Z,2.30
2023-01-04T07:32:59.823Z,2.30
2023-01-04T07:35:27.170Z,2.57
2023-01-04T07:37:58.726Z,2.10
2023-01-04T07:40:27.916Z,2.30
2023-01-04T07:42:59.124Z,2.23
2023-01-04T07:45:27.026Z,2.23
2023-01-04T07:47:54.130Z,2.23
2023-01-04T07:50:21.147Z,2.47
2023-01-04T07:52:48.139Z,2.53
2023-01-04T07:55:15.138Z,2.17
2023-01-04T07:57:42.073Z,2.50
2023-01-04T08:00:09.621Z,2.33
2023-01-04T08:02:39.413Z,2.80
2023-01-04T08:05:06.970Z,2.53
2023-01-04T08:07:34.082Z,3.00
2023-01-04T08:10:01.815Z,2.70
2023-01-04T08:12:30.554Z,2.60
2023-01-04T08:14:57.587Z,2.60
2023-01-04T08:17:24.547Z,2.73
2023-01-04T08:19:51.611Z,2.73
2023-01-04T08:22:18.609Z,2.70
2023-01-04T08:24:45.573Z,3.43
2023-01-04T08:27:12.565Z,3.23
2023-01-04T08:29:40.697Z,3.47
2023-01-04T08:32:08.318Z,4.10
2023-01-04T08:34:35.546Z,4.40
2023-01-04T08:37:02.562Z,4.20
2023-01-04T08:39:33.468Z,4.13
2023-01-04T08:42:14.550Z,4.00
2023-01-04T08:44:46.225Z,3.90
2023-01-04T08:47:13.274Z,5.00
2023-01-04T08:49:40.555Z,4.53
2023-01-04T08:52:09.394Z,5.13
2023-01-04T08:54:36.473Z,6.03
2023-01-04T08:57:03.514Z,5.67
2023-01-04T08:59:30.628Z,5.77
2023-01-04T09:02:04.911Z,5.80
2023-01-04T09:04:33.334Z,5.80
2023-01-04T09:07:00.749Z,5.43
2023-01-04T09:09:30.389Z,5.43
2023-01-04T09:11:59.838Z,6.67
2023-01-04T09:14:27.875Z,5.63
2023-01-04T09:16:55.607Z,6.93
2023-01-04T09:19:23.392Z,6.53
2023-01-04T09:21:50.736Z,6.73
2023-01-04T09:24:18.090Z,6.37
2023-01-04T09:26:47.537Z,6.47
2023-01-04T09:29:14.724Z,6.87
2023-01-04T09:31:42.062Z,6.33
2023-01-04T09:34:14.593Z,7.13
2023-01-04T09:36:42.861Z,5.20
2023-01-04T09:39:16.747Z,6.43
2023-01-04T09:42:05.054Z,5.90
2023-01-04T09:47:53.557Z,6.07
2023-01-04T09:50:29.104Z,6.33
2023-01-04T09:53:12.863Z,5.67
2023-01-04T09:55:45.966Z,6.13
2023-01-04T09:58:17.372Z,5.17
2023-01-04T10:00:51.607Z,6.17
2023-01-04T10:03:28.589Z,5.67
2023-01-04T10:11:02.164Z,6.53
2023-01-04T10:13:38.081Z,6.47
2023-01-04T10:17:10.502Z,6.57
2023-01-04T10:22:40.260Z,6.20
2023-01-04T10:25:54.638Z,6.50
2023-01-04T10:28:39.754Z,6.37
2023-01-04T10:31:40.492Z,6.27
2023-01-04T10:34:26.837Z,6.20
2023-01-04T10:37:05.297Z,5.90
2023-01-04T10:39:36.207Z,6.90
2023-01-04T10:42:33.766Z,6.27
2023-01-04T10:45:08.583Z,7.05
2023-01-04T10:47:45.241Z,6.47
2023-01-04T10:50:27.863Z,6.40
2023-01-04T10:53:07.114Z,5.23
2023-01-04T10:55:40.069Z,6.10
2023-01-04T10:58:35.219Z,6.10
2023-01-04T11:01:19.042Z,6.20
2023-01-04T11:03:54.199Z,5.90
2023-01-04T11:06:27.457Z,4.93
2023-01-04T11:09:02.609Z,4.87
2023-01-04T11:11:32.275Z,4.70
2023-01-04T11:14:00.359Z,4.87
2023-01-04T11:16:30.190Z,4.23
2023-01-04T11:18:57.743Z,4.00
2023-01-04T11:21:32.551Z,3.90
2023-01-04T11:24:30.148Z,3.83
2023-01-04T11:26:53.192Z,4.17
2023-01-04T11:29:48.422Z,3.83
2023-01-04T11:32:34.667Z,4.30
2023-01-04T11:35:01.763Z,4.37
2023-01-04T11:37:33.885Z,4.03
2023-01-04T11:40:21.292Z,4.97
2023-01-04T11:42:53.765Z,4.90
2023-01-04T11:45:22.820Z,5.30
2023-01-04T11:47:53.728Z,4.67
2023-01-04T11:50:41.281Z,5.47
2023-01-04T11:56:37.031Z,5.40
2023-01-04T11:59:04.535Z,4.70
2023-01-04T12:01:36.328Z,5.13
2023-01-04T12:04:09.891Z,4.43
2023-01-04T12:06:47.042Z,4.00
2023-01-04T12:09:16.245Z,3.80
2023-01-04T12:11:50.015Z,4.03
2023-01-04T12:14:21.956Z,3.77
2023-01-04T12:16:53.033Z,3.63
2023-01-04T12:19:21.591Z,3.17
2023-01-04T12:22:31.253Z,3.13
2023-01-04T12:25:01.066Z,3.57
2023-01-04T12:27:30.259Z,3.07
2023-01-04T12:30:06.237Z,2.93
2023-01-04T12:32:33.134Z,3.33
2023-01-04T12:35:00.189Z,2.90
2023-01-04T12:37:51.385Z,2.73
2023-01-04T12:40:49.807Z,2.70
2023-01-04T12:43:16.877Z,2.60
2023-01-04T12:45:45.164Z,3.17
2023-01-04T12:48:48.649Z,3.23
2023-01-04T12:51:32.891Z,2.90
2023-01-04T12:54:05.579Z,3.10
2023-01-04T12:57:09.983Z,2.33
2023-01-04T12:59:39.860Z,2.90
2023-01-04T13:02:17.790Z,2.40
2023-01-04T13:04:45.658Z,2.63
2023-01-04T13:07:30.235Z,2.63
2023-01-04T13:10:13.292Z,2.50
2023-01-04T13:12:58.210Z,2.47
2023-01-04T13:15:48.091Z,2.57
2023-01-04T13:18:35.544Z,2.80
2023-01-04T13:23:31.813Z,2.33
2023-01-04T13:26:28.803Z,2.63
2023-01-04T13:29:12.118Z,2.47
2023-01-04T13:31:42.732Z,2.17
2023-01-04T13:34:32.326Z,2.50
2023-01-04T13:37:05.162Z,2.43
2023-01-04T13:39:32.319Z,2.13
2023-01-04T13:41:59.696Z,2.43
2023-01-04T13:45:17.875Z,2.40
2023-01-04T13:47:35.864Z,2.10
2023-01-04T13:50:03.495Z,1.90
2023-01-04T13:55:24.074Z,2.58
2023-01-04T13:57:58.360Z,2.40
2023-01-04T14:00:30.912Z,2.67
2023-01-04T14:03:07.015Z,2.33
2023-01-04T14:05:35.252Z,2.65
2023-01-04T14:08:02.976Z,2.90
2023-01-04T14:10:29.961Z,2.50
2023-01-04T14:13:04.138Z,2.50
2023-01-04T14:15:33.875Z,2.90
2023-01-04T14:18:00.912Z,2.40
2023-01-04T14:20:32.482Z,2.60
2023-01-04T14:22:59.580Z,2.47
2023-01-04T14:25:56.709Z,2.93
2023-01-04T14:28:32.884Z,2.30
2023-01-04T14:31:00.078Z,2.90
2023-01-04T14:33:32.946Z,3.40
2023-01-04T14:36:15.637Z,3.07
2023-01-04T14:39:07.166Z,2.83
2023-01-04T14:41:42.850Z,3.00
2023-01-04T14:44:13.851Z,3.60
2023-01-04T14:46:43.780Z,3.67
2023-01-04T14:49:10.917Z,3.60
2023-01-04T14:51:53.497Z,3.70
2023-01-04T14:54:25.519Z,4.10
2023-01-04T14:56:54.122Z,3.97
2023-01-04T14:59:24.089Z,3.77
2023-01-04T15:01:53.235Z,3.97
2023-01-04T15:04:20.864Z,4.37
2023-01-04T15:06:50.925Z,4.47
2023-01-04T15:09:17.995Z,4.90
2023-01-04T15:11:45.331Z,4.50
2023-01-04T15:14:12.719Z,5.33
2023-01-04T15:16:39.919Z,5.50
2023-01-04T15:19:07.240Z,5.33
2023-01-04T15:21:40.577Z,5.60
2023-01-04T15:24:09.437Z,6.13
2023-01-04T15:26:39.673Z,5.33
2023-01-04T15:29:08.616Z,5.67
2023-01-04T15:31:39.791Z,4.70
2023-01-04T15:34:09.320Z,5.70
2023-01-04T15:36:38.912Z,4.57
2023-01-04T15:39:07.325Z,4.97
2023-01-04T15:41:53.381Z,4.97
2023-01-04T15:44:21.067Z,5.17
2023-01-04T15:46:48.657Z,5.17
2023-01-04T15:49:17.827Z,5.93
2023-01-04T15:51:45.983Z,4.67
2023-01-04T15:54:13.550Z,4.97
2023-01-04T15:56:40.572Z,5.53
2023-01-04T15:59:07.662Z,6.07
2023-01-04T16:01:34.852Z,5.23
2023-01-04T16:04:02.795Z,4.80
2023-01-04T16:06:29.843Z,4.43
2023-01-04T16:08:59.019Z,5.57
2023-01-04T16:11:26.031Z,5.50
2023-01-04T16:13:53.780Z,5.60
2023-01-04T16:16:23.723Z,5.07
2023-01-04T16:18:53.628Z,6.20
2023-01-04T16:21:26.008Z,5.23
2023-01-04T16:24:01.692Z,4.83
2023-01-04T16:26:29.053Z,5.20
2023-01-04T16:28:56.148Z,5.60
2023-01-04T16:31:23.301Z,5.30
2023-01-04T16:33:54.173Z,5.30
2023-01-04T16:36:22.473Z,5.40
2023-01-04T16:38:49.879Z,5.03
2023-01-04T16:41:19.247Z,5.63
2023-01-04T16:43:52.554Z,4.50
2023-01-04T16:46:19.481Z,4.67
2023-01-04T16:48:54.677Z,5.10
2023-01-04T16:51:23.860Z,4.47
2023-01-04T16:53:52.856Z,4.37
2023-01-04T16:56:22.243Z,4.10
2023-01-04T16:58:49.339Z,4.10
2023-01-04T17:01:19.181Z,4.20
2023-01-04T17:03:47.693Z,5.07
2023-01-04T17:06:20.899Z,4.97
2023-01-04T17:08:49.987Z,4.33
2023-01-04T17:14:08.397Z,4.33
2023-01-04T17:16:35.681Z,5.20
2023-01-04T17:19:02.752Z,4.30
2023-01-04T17:21:35.316Z,4.77
2023-01-04T17:24:03.794Z,4.37
2023-01-04T17:26:32.881Z,3.70
2023-01-04T17:29:01.349Z,4.83
2023-01-04T17:31:38.316Z,4.43
2023-01-04T17:36:33.287Z,5.30
2023-01-04T17:39:01.117Z,5.23
2023-01-04T17:41:29.903Z,4.80
2023-01-04T17:44:05.482Z,5.60
2023-01-04T17:46:35.545Z,6.00
2023-01-04T17:49:23.318Z,5.30
2023-01-04T17:51:53.345Z,6.03
2023-01-04T17:54:21.369Z,5.73
2023-01-04T17:56:48.443Z,5.87
2023-01-04T17:59:15.520Z,6.50
2023-01-04T18:01:42.533Z,6.77
2023-01-04T18:04:09.703Z,6.90
2023-01-04T18:06:37.678Z,7.10
2023-01-04T18:09:09.141Z,6.50
2023-01-04T18:11:36.712Z,6.73
2023-01-04T18:14:07.817Z,6.53
2023-01-04T18:16:56.855Z,7.03
2023-01-04T18:19:28.580Z,7.03
2023-01-04T18:21:56.637Z,6.27
2023-01-04T18:24:39.827Z,6.13
2023-01-04T18:27:27.691Z,5.47
2023-01-04T18:29:56.436Z,6.50
2023-01-04T18:32:25.790Z,6.90
2023-01-04T18:34:52.985Z,6.30
2023-01-04T18:37:20.082Z,6.87
2023-01-04T18:39:48.391Z,6.37
2023-01-04T18:42:16.133Z,6.43
2023-01-04T18:44:48.313Z,6.20
2023-01-04T18:47:21.343Z,6.57
2023-01-04T18:49:51.874Z,5.63
2023-01-04T18:52:20.050Z,5.60
2023-01-04T18:54:48.263Z,5.60
2023-01-04T18:57:15.290Z,5.80
2023-01-04T18:59:42.278Z,6.37
2023-01-04T19:02:15.856Z,6.47
2023-01-04T19:04:43.001Z,6.33
2023-01-04T19:07:09.954Z,6.30
2023-01-04T19:09:37.151Z,7.13
2023-01-04T19:12:04.258Z,5.93
2023-01-04T19:14:31.235Z,5.80
2023-01-04T19:16:58.333Z,5.67
2023-01-04T19:19:25.463Z,5.33
2023-01-04T19:21:52.450Z,5.10
2023-01-04T19:24:19.438Z,5.77
2023-01-04T19:26:46.431Z,5.70
2023-01-04T19:29:13.440Z,5.90
2023-01-04T19:31:40.460Z,5.17
2023-01-04T19:34:10.095Z,5.73
2023-01-04T19:36:37.420Z,5.27
2023-01-04T19:39:07.845Z,5.17
2023-01-04T19:41:36.702Z,5.93
2023-01-04T19:44:11.038Z,5.82
2023-01-04T19:46:39.247Z,6.43
2023-01-04T19:49:14.233Z,6.22
2023-01-04T19:51:44.512Z,6.37
2023-01-04T19:54:12.158Z,5.73
2023-01-04T19:56:39.905Z,6.60
2023-01-04T19:59:07.053Z,5.80
2023-01-04T20:01:34.110Z,6.07
2023-01-04T20:04:01.263Z,5.63
2023-01-04T20:06:28.509Z,6.10
2023-01-04T20:08:55.601Z,5.83
2023-01-04T20:11:22.690Z,5.60
2023-01-04T20:13:49.702Z,6.60
2023-01-04T20:16:16.752Z,5.60
2023-01-04T20:18:43.800Z,6.13
2023-01-04T20:21:13.748Z,6.93
2023-01-04T20:23:41.621Z,6.67
2023-01-04T20:26:12.770Z,6.53
2023-01-04T20:28:41.975Z,7.10
2023-01-04T20:31:12.472Z,6.83
2023-01-04T20:33:39.620Z,6.73
2023-01-04T20:36:15.758Z,6.77
2023-01-04T20:38:44.304Z,6.47
2023-01-04T20:41:14.463Z,7.50
2023-01-04T20:43:41.511Z,6.17
2023-01-04T20:46:17.727Z,6.57
2023-01-04T20:48:45.970Z,5.80
2023-01-04T20:51:16.570Z,6.13
2023-01-04T20:53:43.735Z,6.70
2023-01-04T20:56:13.784Z,6.18
2023-01-04T20:58:40.899Z,5.90
2023-01-04T21:01:08.568Z,6.00
2023-01-04T21:03:36.654Z,5.30
2023-01-04T21:06:09.424Z,5.10
2023-01-04T21:08:38.417Z,4.90
2023-01-04T21:11:06.719Z,5.23
2023-01-04T21:13:34.007Z,4.93
2023-01-04T21:16:01.962Z,4.63
2023-01-04T21:18:29.059Z,4.20
2023-01-04T21:20:56.178Z,3.63
2023-01-04T21:23:25.633Z,4.10
2023-01-04T21:25:53.276Z,4.00
2023-01-04T21:28:21.959Z,4.30
2023-01-04T21:30:50.104Z,3.87
2023-01-04T21:33:17.828Z,3.57
2023-01-04T21:35:44.878Z,3.17
2023-01-04T21:38:11.875Z,3.43
2023-01-04T21:40:41.145Z,3.30
2023-01-04T21:43:15.330Z,3.23
2023-01-04T21:45:42.286Z,3.67
2023-01-04T21:48:09.846Z,2.90
2023-01-04T21:50:37.138Z,3.10
2023-01-04T21:53:04.225Z,3.37
2023-01-04T21:55:34.748Z,2.93
2023-01-04T21:58:02.926Z,2.90
2023-01-04T22:00:29.917Z,3.00
2023-01-04T22:02:56.957Z,2.80
2023-01-04T22:05:23.996Z,2.87
2023-01-04T22:07:50.962Z,2.60
2023-01-04T22:10:17.940Z,2.80
2023-01-04T22:12:47.907Z,2.60
2023-01-04T22:15:14.986Z,2.37
2023-01-04T22:17:42.030Z,2.30
2023-01-04T22:20:09.707Z,2.20
2023-01-04T22:22:36.681Z,2.47
2023-01-04T22:25:03.880Z,2.00
2023-01-04T22:27:31.136Z,2.00
2023-01-04T22:29:58.195Z,1.87
2023-01-04T22:32:25.142Z,2.60
2023-01-04T22:34:52.255Z,1.93
2023-01-04T22:37:19.351Z,2.03
2023-01-04T22:39:46.348Z,2.00
2023-01-04T22:42:14.126Z,2.67
2023-01-04T22:44:41.170Z,2.30
2023-01-04T22:47:08.261Z,2.27
2023-01-04T22:49:35.244Z,2.37
2023-01-04T22:52:02.228Z,2.43
2023-01-04T22:54:31.330Z,2.67
2023-01-04T22:56:58.328Z,2.10
2023-01-04T22:59:26.950Z,2.50
2023-01-04T23:01:54.180Z,2.17
2023-01-04T23:04:21.394Z,2.43
2023-01-04T23:06:48.486Z,2.37
2023-01-04T23:09:18.118Z,2.50
2023-01-04T23:11:45.414Z,2.27
2023-01-04T23:14:15.736Z,2.27
2023-01-04T23:16:44.051Z,2.17
2023-01-04T23:19:13.077Z,2.37
2023-01-04T23:21:40.225Z,2.13
2023-01-04T23:24:08.066Z,2.00
2023-01-04T23:26:35.090Z,1.90
2023-01-04T23:29:02.635Z,2.10
2023-01-04T23:31:31.781Z,1.60
2023-01-04T23:34:01.479Z,1.77
2023-01-04T23:36:33.990Z,1.73
2023-01-04T23:39:03.305Z,1.60
2023-01-04T23:41:45.839Z,1.67
2023-01-04T23:44:26.158Z,1.70
2023-01-04T23:47:01.805Z,1.70
2023-01-04T23:49:31.165Z,1.40
2023-01-04T23:51:59.245Z,1.60
2023-01-04T23:54:27.125Z,1.60
2023-01-04T23:56:54.849Z,1.50
2023-01-04T23:59:22.890Z,1.50
